Carson Valley, Nevada Weather observations

Data are for 10 minute period ending at time listed.
 Day   Time   Solar   Ave.   Ave.  Ave.  Vector  Max.   Baro.   Total    
  of    of     Rad.   Air    Rel.  Wind   Wind   Wind  Press.  Precip.   
Year   Day            Temp.  Hum.  Speed  Dir.   Gust                    
2015   (PST)  Kw/m2    F      %     mph   deg.    mph    mb.     in.     
-------------------------------------------------------------------------
  86    2:50   0.00   33.7    77    1.6   112     2.3   863.2    0.00 
  86    3:00   0.00   33.2    77    1.5   130     2.3   863.2    0.00 
  86    3:10   0.00   32.6    78    1.3   143     2.3   863.2    0.00 
  86    3:20   0.00   31.3    81    1.3   214     2.3   863.3    0.00 
  86    3:30   0.00   32.2    83    1.6   237     2.7   863.3    0.00 
  86    3:40   0.00   33.3    83    0.7   242     1.8   863.3    0.00 
  86    3:50   0.00   32.3    84    0.2   104     0.9   863.2    0.00 
  86    4:00   0.00   31.0    87    1.3   109     2.4   863.2    0.00 
  86    4:10   0.00   30.1    89    2.9   149     3.9   863.2    0.00 
  86    4:20   0.00   29.6    90    2.3   212     3.5   863.2    0.00 
  86    4:30   0.00   30.8    93    2.1   256     2.4   863.1    0.00 
  86    4:40   0.00   31.3    92    1.8   292     2.7   863.0    0.00 
  86    4:50   0.00   29.2    92    3.2    99     5.3   863.0    0.00 
  86    5:00   0.00   30.6    96    2.9   126     3.8   863.0    0.00 
  86    5:10   0.00   31.3    94    2.3   152     3.6   863.1    0.00 
  86    5:20   0.00   29.7    91    2.1   115     2.9   863.0    0.00 
  86    5:30   0.00   28.7    92    0.9   144     2.0   863.0    0.00 
  86    5:40   0.00   28.7    92    0.1   139     0.9   863.1    0.00 
  86    5:50   0.00   28.7    92    0.2   109     1.0   863.2    0.00 
  86    6:00   0.01   29.0    92    0.3   294     1.8   863.2    0.00 
  86    6:10   0.02   30.3    94    1.3   282     2.8   863.2    0.00 
  86    6:20   0.06   32.2    94    1.6   308     2.7   863.3    0.00 
  86    6:30   0.09   32.0    92    0.8   343     1.7   863.4    0.00 
  86    6:40   0.12   33.1    90    1.2   182     2.6   863.4    0.00 
  86    6:50   0.15   35.3    90    1.1   120     2.4   863.4    0.00 
  86    7:00   0.18   37.7    87    1.8   105     3.0   863.4    0.00 
  86    7:10   0.21   40.6    81    1.1   100     1.8   863.3    0.00 
  86    7:20   0.25   42.1    76    2.0   219     4.3   863.2    0.00 
  86    7:30   0.28   41.7    78    2.4   234     3.7   863.2    0.00 
  86    7:40   0.32   44.2    72    2.4   314     4.0   863.1    0.00 
  86    7:50   0.36   46.4    66    1.2   359     2.4   863.0    0.00 
  86    8:00   0.39   49.2    60    1.1    27     2.4   862.9    0.00 
  86    8:10   0.43   50.4    56    1.7   314     4.2   862.9    0.00 
  86    8:20   0.46   51.0    53    2.8   316     4.5   862.9    0.00 
  86    8:30   0.50   53.0    47    2.0   276     4.1   863.0    0.00 
  86    8:40   0.53   56.0    41    1.5   153     3.3   863.1    0.00 
  86    8:50   0.56   56.8    40    1.1   229     3.7   863.2    0.00 
  86    9:00   0.59   58.9    36    1.3   112     3.2   863.3    0.00 
  86    9:10   0.62   59.0    36    1.5     6     3.4   863.4    0.00 
  86    9:20   0.65   61.1    36    0.8   148     2.2   863.4    0.00 
  86    9:30   0.68   62.3    34    0.9   287     3.3   863.4    0.00 
  86    9:40   0.71   63.2    33    1.5   180     5.0   863.4    0.00 
  86    9:50   0.73   63.1    32    2.6   133     5.2   863.3    0.00 
  86   10:00   0.75   64.0    30    2.8   144     5.7   863.2    0.00 
  86   10:10   0.77   64.8    28    2.4   202     5.7   863.1    0.00 
  86   10:20   0.79   65.5    28    2.7   150     5.4   863.0    0.00 
  86   10:30   0.81   67.7    27    2.3   174     4.9   862.9    0.00 
  86   10:40   0.81   68.9    26    1.4   198     3.9   862.8    0.00 
  86   10:50   0.84   70.0    23    2.7    61     6.1   862.7    0.00 
  86   11:00   0.85   70.3    22    3.3   101     6.4   862.5    0.00 
  86   11:10   0.86   71.0    19    3.5    28     6.4   862.4    0.00 
  86   11:20   0.87   72.0    19    2.2   356     4.5   862.3    0.00 
  86   11:30   0.88   72.0    18    2.0   254     5.8   862.2    0.00 
  86   11:40   0.88   72.6    18    3.0    25     7.9   862.0    0.00 
  86   11:50   0.89   73.2    18    5.2   143    11.5   861.8    0.00 
  86   12:00   0.89   73.0    17    4.0    86     7.1   861.8    0.00 
  86   12:10   0.89   73.4    18    5.7   220    11.4   861.7    0.00 
  86   12:20   0.88   73.4    18    7.9   234    16.4   861.6    0.00 
  86   12:30   0.88   72.9    18    5.5   261    13.7   861.5    0.00 
  86   12:40   0.88   74.8    17    4.9   213     9.6   861.3    0.00 
  86   12:50   0.87   74.5    18    3.7   251    10.7   861.1    0.00 
  86   13:00   0.86   74.0    17    7.5   232    17.1   860.9    0.00 
  86   13:10   0.85   74.3    17   10.1   236    16.3   860.8    0.00 
  86   13:20   0.83   74.6    16    4.7   233    14.7   860.7    0.00 
  86   13:30   0.82   75.0    17   11.4   241    17.8   860.5    0.00 
  86   13:40   0.81   74.3    16   13.9   248    19.6   860.4    0.00 
  86   13:50   0.79   74.7    17   15.8   266    26.0   860.3    0.00 
  86   14:00   0.77   74.1    16   13.1   264    21.8   860.2    0.00 
  86   14:10   0.75   74.5    17   14.3   261    20.7   860.1    0.00 
  86   14:20   0.73   74.5    17   17.0   265    26.2   859.9    0.00 
  86   14:30   0.70   74.4    17   14.3   259    23.9   859.8    0.00 
  86   14:40   0.68   74.5    17   15.8   230    23.2   859.8    0.00 
  86   14:50   0.65   73.9    17   15.3   254    22.6   859.6    0.00 
  86   15:00   0.62   73.7    18   14.1   253    23.1   859.6    0.00 
  86   15:10   0.59   73.7    19   13.1   239    22.1   859.7    0.00 
  86   15:20   0.56   73.5    19   12.9   259    21.3   859.6    0.00 
  86   15:30   0.53   73.0    19   14.8   250    24.8   859.6    0.00 
  86   15:40   0.49   72.8    20   14.2   263    21.2   859.6    0.00 
  86   15:50   0.46   72.9    19   13.4   234    22.4   859.7    0.00 
  86   16:00   0.42   72.1    21   14.8   255    22.9   859.6    0.00 
  86   16:10   0.39   71.7    22   15.6   266    24.3   859.6    0.00 
  86   16:20   0.36   71.1    21   17.1   265    24.0   859.6    0.00 
  86   16:30   0.32   70.9    22   14.6   264    23.4   859.6    0.00 
  86   16:40   0.29   70.3    22   16.5   267    22.3   859.6    0.00 
  86   16:50   0.25   70.2    22   12.8   261    20.0   859.7    0.00 
  86   17:00   0.22   69.7    22   12.7   258    22.4   859.6    0.00 
  86   17:10   0.18   69.0    23   13.1   257    19.1   859.7    0.00 
  86   17:20   0.15   68.0    24   11.4   254    15.9   859.8    0.00 
  86   17:30   0.08   67.2    24   13.7   265    19.1   859.8    0.00 
  86   17:40   0.02   65.3    26   12.2   256    17.2   859.8    0.00 
  86   17:50   0.02   65.6    26   11.2   263    16.4   859.8    0.00 
  86   18:00   0.01   64.4    28   13.3   254    20.4   859.8    0.00 
  86   18:10   0.01   65.0    28   15.9   260    23.4   859.8    0.00 
  86   18:20   0.01   64.6    29   15.8   258    25.8   859.8    0.00 
  86   18:30   0.00   63.6    31   12.3   253    20.0   859.8    0.00 
  86   18:40   0.00   63.0    33   15.5   251    22.6   859.9    0.00 
  86   18:50   0.00   63.1    34   16.5   251    22.9   860.0    0.00 
  86   19:00   0.00   62.7    35   17.0   253    24.3   860.1    0.00 
  86   19:10   0.00   62.2    35   14.7   251    20.2   860.3    0.00 
  86   19:20   0.00   62.3    34   16.8   250    26.9   860.3    0.00 
  86   19:30   0.00   61.9    36   17.4   252    25.1   860.5    0.00 
  86   19:40   0.00   61.7    35   17.3   248    23.6   860.7    0.00 
  86   19:50   0.00   61.2    36   16.3   248    21.9   860.7    0.00 
  86   20:00   0.00   60.6    36   14.0   248    20.8   860.8    0.00 
  86   20:10   0.00   60.7    36   16.6   248    23.2   860.9    0.00 
  86   20:20   0.00   60.7    34   14.9   250    23.3   861.0    0.00 
  86   20:30   0.00   60.4    33   14.2   244    21.0   861.1    0.00 
  86   20:40   0.00   60.1    32   12.3   239    20.4   861.1    0.00 
  86   20:50   0.00   59.3    32   10.0   234    14.2   861.1    0.00 
  86   21:00   0.00   59.6    30   11.3   243    17.5   861.1    0.00 
  86   21:10   0.00   59.0    29    8.2   228    15.2   861.2    0.00 
  86   21:20   0.00   57.0    32    6.1   211    10.4   861.2    0.00 
  86   21:30   0.00   58.1    29    9.1   243    14.9   861.2    0.00 
  86   21:40   0.00   55.2    38    4.4   159    10.3   861.3    0.00 
  86   21:50   0.00   51.6    46    5.2   145     7.8   861.2    0.00 
  86   22:00   0.00   52.3    44    6.1   121     8.8   861.1    0.00 
  86   22:10   0.00   48.8    52    4.7   132     9.3   861.0    0.00 
  86   22:20   0.00   47.5    52    3.4   131     4.7   860.9    0.00 
  86   22:30   0.00   43.6    59    4.5    95     6.8   860.8    0.00 
  86   22:40   0.00   43.1    60    3.0    97     5.3   860.8    0.00 
  86   22:50   0.00   41.8    63    5.3    99     6.5   860.7    0.00 
  86   23:00   0.00   42.8    63    6.1   110     9.6   860.6    0.00 
  86   23:10   0.00   45.7    55    4.0   118     6.0   860.5    0.00 
  86   23:20   0.00   43.3    58    3.7   150     6.1   860.5    0.00 
  86   23:30   0.00   41.9    58    2.7   229     6.2   860.5    0.00 
  86   23:40   0.00   39.7    66    4.7    91     7.5   860.5    0.00 
  86   23:50   0.00   42.2    57    3.0   105     7.8   860.3    0.00 
  87    0:00   0.00   43.6    52    2.0   100     4.5   860.3    0.00 
  87    0:10   0.00   44.4    52    3.5   147     6.3   860.3    0.00 
  87    0:20   0.00   46.4    46    4.0    86     6.5   860.3    0.00 
  87    0:30   0.00   40.0    63    4.7    51     8.6   860.3    0.00 
  87    0:40   0.00   38.0    66    4.0    70     8.3   860.3    0.00 
  87    0:50   0.00   38.7    64    4.3    30     5.8   860.4    0.00 
  87    1:00   0.00   39.6    61    3.0    82     9.8   860.6    0.00 
  87    1:10   0.00   45.4    48    4.4   272     8.3   860.5    0.00 
  87    1:20   0.00   43.1    53    3.4    92     5.3   860.5    0.00 
  87    1:30   0.00   43.1    53    4.0    64     6.0   860.5    0.00 
  87    1:40   0.00   41.7    56    3.6    65     7.2   860.6    0.00 
  87    1:50   0.00   40.8    58    3.1    68     6.0   860.5    0.00 
  87    2:00   0.00   42.4    53    2.8   105     5.1   860.5    0.00 
  87    2:10   0.00   41.6    55    4.0   152     6.0   860.5    0.00 
  87    2:20   0.00   39.7    59    3.5    62     6.6   860.4    0.00 
  87    2:30   0.00   39.2    60    3.4    98     7.3   860.6    0.00 
  87    2:40   0.00   40.1    58    3.4   159     5.7   860.5    0.00 

Return to Carson Valley graphs page.


Western Regional Climate Center,wrcc@dri.edu